createdAt,value
2023-03-29T00:04:00.404Z,0
2023-03-29T00:09:17.425Z,0
2023-03-29T00:14:36.502Z,0
2023-03-29T00:19:55.640Z,0
2023-03-29T00:25:14.630Z,0
2023-03-29T00:30:34.416Z,0
2023-03-29T00:35:53.344Z,0
2023-03-29T00:41:12.510Z,0
2023-03-29T00:46:31.852Z,0
2023-03-29T00:51:50.770Z,0
2023-03-29T00:57:10.255Z,0
2023-03-29T01:02:29.910Z,0
2023-03-29T01:07:49.461Z,0
2023-03-29T01:13:09.017Z,0
2023-03-29T01:18:28.625Z,0
2023-03-29T01:23:47.433Z,0
2023-03-29T01:29:07.065Z,0
2023-03-29T01:34:26.206Z,0
2023-03-29T01:45:04.451Z,0
2023-03-29T01:50:23.757Z,0
2023-03-29T01:55:43.178Z,0
2023-03-29T02:01:02.523Z,0
2023-03-29T02:06:21.374Z,0
2023-03-29T02:11:40.362Z,0
2023-03-29T02:16:59.876Z,0
2023-03-29T02:22:19.295Z,0
2023-03-29T02:27:38.922Z,0
2023-03-29T02:32:58.781Z,0
2023-03-29T02:43:37.366Z,0
2023-03-29T02:48:56.583Z,0
2023-03-29T02:54:15.797Z,0
2023-03-29T02:59:35.574Z,0
2023-03-29T03:04:54.925Z,0
2023-03-29T03:10:14.446Z,0
2023-03-29T03:15:33.181Z,0
2023-03-29T03:20:52.240Z,0
2023-03-29T03:26:11.654Z,0
2023-03-29T03:31:31.153Z,0
2023-03-29T03:36:50.455Z,0
2023-03-29T03:42:09.443Z,0
2023-03-29T03:47:28.427Z,0
2023-03-29T03:52:47.847Z,0
2023-03-29T03:58:07.570Z,0
2023-03-29T04:03:26.386Z,0
2023-03-29T04:08:45.162Z,0
2023-03-29T04:14:04.527Z,0
2023-03-29T04:19:23.580Z,0
2023-03-29T04:24:42.637Z,0
2023-03-29T04:30:02.004Z,0
2023-03-29T04:35:20.978Z,0
2023-03-29T04:45:59.146Z,0
2023-03-29T04:51:18.329Z,0
2023-03-29T04:56:37.993Z,1
2023-03-29T05:01:57.469Z,14.78
2023-03-29T05:07:17.048Z,18.45
2023-03-29T05:12:36.417Z,22.7
2023-03-29T05:17:55.459Z,22.53
2023-03-29T05:23:14.290Z,26.8
2023-03-29T05:28:33.352Z,30.71
2023-03-29T05:33:52.870Z,36.66
2023-03-29T05:39:12.554Z,43.34
2023-03-29T05:44:31.770Z,47.33
2023-03-29T05:49:51.065Z,47.32
2023-03-29T05:55:09.759Z,52.07
2023-03-29T06:00:29.320Z,57.19
2023-03-29T06:05:49.716Z,59.44
2023-03-29T06:11:07.986Z,51.26
2023-03-29T06:16:26.608Z,55.97
2023-03-29T06:21:46.189Z,66.58
2023-03-29T06:27:14.453Z,66.89
2023-03-29T06:32:25.407Z,79.39
2023-03-29T06:37:44.766Z,85.62
2023-03-29T06:43:03.808Z,93.82
2023-03-29T06:53:42.074Z,122.66
2023-03-29T06:59:01.856Z,126.14
2023-03-29T07:04:20.849Z,130.1
2023-03-29T07:09:39.794Z,146.11
2023-03-29T07:20:17.561Z,149.6
2023-03-29T07:25:37.097Z,159.31
2023-03-29T07:30:55.902Z,176.26
2023-03-29T07:36:15.256Z,165.05
2023-03-29T07:41:34.678Z,181.44
2023-03-29T07:46:53.877Z,188.53
2023-03-29T07:52:12.845Z,170.12
2023-03-29T07:57:31.744Z,154.67
2023-03-29T08:02:51.275Z,160.93
2023-03-29T08:08:10.657Z,209.85
2023-03-29T08:18:48.937Z,174.68
2023-03-29T08:24:08.612Z,253.29
2023-03-29T08:34:47.461Z,204.82
2023-03-29T08:40:06.927Z,214.06
2023-03-29T08:50:45.172Z,304.18
2023-03-29T08:56:04.726Z,236.39
2023-03-29T09:01:23.903Z,197.09
2023-03-29T09:06:42.650Z,214.03
2023-03-29T09:12:01.875Z,244.08
2023-03-29T09:17:20.742Z,246.16
2023-03-29T09:22:40.398Z,266.65
2023-03-29T09:27:59.995Z,240.47
2023-03-29T09:33:18.798Z,240.48
2023-03-29T09:43:57.164Z,250.63
2023-03-29T09:49:17.387Z,251.01
2023-03-29T09:54:36.049Z,258.68
2023-03-29T09:59:55.635Z,231.52
2023-03-29T10:05:14.782Z,242.83
2023-03-29T10:10:34.798Z,272.56
2023-03-29T10:15:54.362Z,280.34
2023-03-29T10:21:13.724Z,275.1
2023-03-29T10:31:52.275Z,240.78
2023-03-29T10:37:11.524Z,243.25
2023-03-29T10:42:30.620Z,265.72
2023-03-29T10:49:04.835Z,320.08
2023-03-29T10:53:21.413Z,393.47
2023-03-29T10:58:30.268Z,395.33
2023-03-29T11:09:08.283Z,371.54
2023-03-29T11:19:47.211Z,172.01
2023-03-29T11:25:05.993Z,511.18
2023-03-29T11:30:25.563Z,308.69
2023-03-29T11:35:44.889Z,288.91
2023-03-29T11:41:04.218Z,286.78
2023-03-29T11:46:22.640Z,332.49
2023-03-29T11:51:41.750Z,453.68
2023-03-29T12:02:20.046Z,330.61
2023-03-29T12:07:39.210Z,264.72
2023-03-29T12:12:57.447Z,235.03
2023-03-29T12:18:16.128Z,268.59
2023-03-29T12:23:35.259Z,277.19
2023-03-29T12:28:54.613Z,257.02
2023-03-29T12:34:13.965Z,339.22
2023-03-29T12:39:33.567Z,377.57
2023-03-29T12:44:53.037Z,241.16
2023-03-29T12:50:12.006Z,428.64
2023-03-29T12:55:31.626Z,125
2023-03-29T13:00:51.140Z,392.42
2023-03-29T13:06:10.402Z,467.53
2023-03-29T13:16:48.095Z,338.68
2023-03-29T13:22:07.069Z,309.92
2023-03-29T13:32:45.202Z,336.43
2023-03-29T13:38:03.926Z,558.87
2023-03-29T13:43:23.008Z,82.55
2023-03-29T13:48:41.885Z,119.03
2023-03-29T13:54:00.572Z,536.55
2023-03-29T13:59:19.663Z,376.82
2023-03-29T14:04:38.480Z,413.34
2023-03-29T14:09:58.044Z,325.82
2023-03-29T14:15:17.312Z,307.52
2023-03-29T14:25:55.619Z,268.97
2023-03-29T14:26:21.618Z,268.85
2023-03-29T14:31:40.883Z,215.41
2023-03-29T14:37:00.205Z,244.51
2023-03-29T14:42:19.129Z,531.79
2023-03-29T14:47:37.988Z,514.74
2023-03-29T14:52:57.630Z,398.84
2023-03-29T14:58:16.225Z,225.29
2023-03-29T15:03:35.893Z,298.46
2023-03-29T15:09:04.810Z,221.98
2023-03-29T15:14:13.584Z,392.53
2023-03-29T15:19:32.420Z,261.1
2023-03-29T15:30:10.675Z,162.78
2023-03-29T15:35:30.393Z,147.11
2023-03-29T15:40:49.768Z,131.79
2023-03-29T15:46:09.079Z,119.62
2023-03-29T15:56:48.283Z,86.95
2023-03-29T16:02:07.300Z,85.71
2023-03-29T16:07:26.766Z,77.36
2023-03-29T16:12:45.895Z,65.12
2023-03-29T16:18:04.837Z,65.82
2023-03-29T16:23:23.609Z,63.52
2023-03-29T16:28:43.200Z,68.79
2023-03-29T16:34:02.377Z,63.38
2023-03-29T16:39:21.943Z,61.42
2023-03-29T16:44:41.612Z,42.2
2023-03-29T16:55:20.390Z,40.22
2023-03-29T17:00:39.280Z,34.07
2023-03-29T17:05:58.459Z,32.51
2023-03-29T17:11:18.176Z,29.13
2023-03-29T17:16:37.185Z,27.2
2023-03-29T17:21:55.833Z,23.28
2023-03-29T17:27:15.090Z,22.25
2023-03-29T17:37:53.601Z,13
2023-03-29T17:43:12.754Z,6
2023-03-29T17:48:32.140Z,2
2023-03-29T17:53:52.329Z,0
2023-03-29T17:59:10.451Z,0
2023-03-29T18:04:29.442Z,0
2023-03-29T18:09:48.347Z,0
2023-03-29T18:15:07.202Z,0
2023-03-29T18:20:26.869Z,0
2023-03-29T18:25:45.919Z,0
2023-03-29T18:31:04.786Z,0
2023-03-29T18:36:24.384Z,0
2023-03-29T18:47:02.685Z,0
2023-03-29T18:52:21.601Z,0
2023-03-29T18:57:41.196Z,0
2023-03-29T19:03:00.397Z,0
2023-03-29T19:08:19.630Z,0
2023-03-29T19:13:39.188Z,0
2023-03-29T19:18:58.674Z,0
2023-03-29T19:24:17.632Z,0
2023-03-29T19:29:36.462Z,0
2023-03-29T19:34:55.645Z,0
2023-03-29T19:40:14.644Z,0
2023-03-29T19:45:33.530Z,0
2023-03-29T19:50:52.458Z,0
2023-03-29T19:56:11.274Z,0
2023-03-29T20:01:30.890Z,0
2023-03-29T20:12:08.817Z,0
2023-03-29T20:17:28.447Z,0
2023-03-29T20:22:48.136Z,0
2023-03-29T20:28:07.184Z,0
2023-03-29T20:33:26.338Z,0
2023-03-29T20:38:45.921Z,0
2023-03-29T20:44:05.198Z,0
2023-03-29T20:49:24.662Z,0
2023-03-29T20:54:43.589Z,0
2023-03-29T21:00:03.240Z,0
2023-03-29T21:05:22.763Z,0
2023-03-29T21:10:42.282Z,0
2023-03-29T21:16:01.588Z,0
2023-03-29T21:21:21.070Z,0
2023-03-29T21:26:40.329Z,0
2023-03-29T21:31:59.891Z,0
2023-03-29T21:37:18.716Z,0
2023-03-29T21:42:37.820Z,0
2023-03-29T21:53:16.389Z,0
2023-03-29T21:58:35.280Z,0
2023-03-29T22:03:53.992Z,0
2023-03-29T22:09:13.698Z,0
2023-03-29T22:14:32.594Z,0
2023-03-29T22:19:51.148Z,0
2023-03-29T22:25:10.505Z,0
2023-03-29T22:30:30.005Z,0
2023-03-29T22:35:49.271Z,0
2023-03-29T22:41:08.390Z,0
2023-03-29T22:51:46.702Z,0
2023-03-29T22:57:06.151Z,0
2023-03-29T23:02:25.964Z,0
2023-03-29T23:07:45.233Z,0
2023-03-29T23:18:24.446Z,0
2023-03-29T23:23:43.804Z,0
2023-03-29T23:29:02.711Z,0
2023-03-29T23:34:21.765Z,0
2023-03-29T23:44:59.613Z,0
2023-03-29T23:50:18.868Z,0
2023-03-29T23:55:38.398Z,0
